sensor_id;sensor_type;location;lat;lon;timestamp;P1;durP1;ratioP1;P2;durP2;ratioP2
52718;SDS011;38616;42.140;24.760;2023-05-10T00:01:42;9.50;;;3.60;;
52718;SDS011;38616;42.140;24.760;2023-05-10T00:04:07;8.35;;;3.25;;
52718;SDS011;38616;42.140;24.760;2023-05-10T00:06:36;8.52;;;3.38;;
52718;SDS011;38616;42.140;24.760;2023-05-10T00:09:01;10.40;;;3.72;;
52718;SDS011;38616;42.140;24.760;2023-05-10T00:11:27;7.30;;;3.13;;
52718;SDS011;38616;42.140;24.760;2023-05-10T00:13:52;7.47;;;3.53;;
52718;SDS011;38616;42.140;24.760;2023-05-10T00:16:17;6.05;;;3.45;;
52718;SDS011;38616;42.140;24.760;2023-05-10T00:18:43;9.38;;;3.30;;
52718;SDS011;38616;42.140;24.760;2023-05-10T00:21:09;7.90;;;3.60;;
52718;SDS011;38616;42.140;24.760;2023-05-10T00:23:34;5.28;;;3.17;;
52718;SDS011;38616;42.140;24.760;2023-05-10T00:25:59;8.27;;;3.10;;
52718;SDS011;38616;42.140;24.760;2023-05-10T00:28:26;10.15;;;3.95;;
52718;SDS011;38616;42.140;24.760;2023-05-10T00:30:52;7.87;;;3.50;;
52718;SDS011;38616;42.140;24.760;2023-05-10T00:33:17;6.65;;;4.00;;
52718;SDS011;38616;42.140;24.760;2023-05-10T00:35:43;6.45;;;3.28;;
52718;SDS011;38616;42.140;24.760;2023-05-10T00:38:08;9.43;;;5.35;;
52718;SDS011;38616;42.140;24.760;2023-05-10T00:40:35;7.00;;;3.25;;
52718;SDS011;38616;42.140;24.760;2023-05-10T00:43:01;8.43;;;3.78;;
52718;SDS011;38616;42.140;24.760;2023-05-10T00:45:26;8.10;;;3.65;;
52718;SDS011;38616;42.140;24.760;2023-05-10T00:47:52;8.35;;;4.07;;
52718;SDS011;38616;42.140;24.760;2023-05-10T00:50:20;8.43;;;4.07;;
52718;SDS011;38616;42.140;24.760;2023-05-10T00:52:46;10.88;;;4.15;;
52718;SDS011;38616;42.140;24.760;2023-05-10T00:55:12;13.63;;;4.03;;
52718;SDS011;38616;42.140;24.760;2023-05-10T00:57:38;11.63;;;4.57;;
52718;SDS011;38616;42.140;24.760;2023-05-10T01:00:03;9.80;;;4.20;;
52718;SDS011;38616;42.140;24.760;2023-05-10T01:02:29;13.10;;;4.70;;
52718;SDS011;38616;42.140;24.760;2023-05-10T01:04:55;8.45;;;3.90;;
52718;SDS011;38616;42.140;24.760;2023-05-10T01:07:20;10.60;;;3.97;;
52718;SDS011;38616;42.140;24.760;2023-05-10T01:09:46;12.13;;;3.92;;
52718;SDS011;38616;42.140;24.760;2023-05-10T01:12:11;9.52;;;4.40;;
52718;SDS011;38616;42.140;24.760;2023-05-10T01:14:37;12.73;;;4.05;;
52718;SDS011;38616;42.140;24.760;2023-05-10T01:17:03;8.68;;;4.72;;
52718;SDS011;38616;42.140;24.760;2023-05-10T01:25:18;11.65;;;5.40;;
52718;SDS011;38616;42.140;24.760;2023-05-10T01:35:43;8.15;;;5.20;;
52718;SDS011;38616;42.140;24.760;2023-05-10T01:38:26;9.43;;;4.53;;
52718;SDS011;38616;42.140;24.760;2023-05-10T01:41:22;8.73;;;4.95;;
52718;SDS011;38616;42.140;24.760;2023-05-10T01:46:43;10.57;;;5.63;;
52718;SDS011;38616;42.140;24.760;2023-05-10T01:49:18;11.02;;;5.15;;
52718;SDS011;38616;42.140;24.760;2023-05-10T01:51:52;14.60;;;5.47;;
52718;SDS011;38616;42.140;24.760;2023-05-10T01:54:22;10.52;;;5.30;;
52718;SDS011;38616;42.140;24.760;2023-05-10T01:56:50;9.35;;;5.05;;
52718;SDS011;38616;42.140;24.760;2023-05-10T01:59:22;11.82;;;5.22;;
52718;SDS011;38616;42.140;24.760;2023-05-10T02:01:53;8.75;;;5.03;;
52718;SDS011;38616;42.140;24.760;2023-05-10T02:04:20;10.93;;;4.77;;
52718;SDS011;38616;42.140;24.760;2023-05-10T02:06:48;15.23;;;5.93;;
52718;SDS011;38616;42.140;24.760;2023-05-10T02:09:16;8.73;;;4.78;;
52718;SDS011;38616;42.140;24.760;2023-05-10T02:11:44;9.00;;;5.55;;
52718;SDS011;38616;42.140;24.760;2023-05-10T02:14:10;16.48;;;5.88;;
52718;SDS011;38616;42.140;24.760;2023-05-10T02:16:36;11.63;;;5.10;;
52718;SDS011;38616;42.140;24.760;2023-05-10T02:19:04;11.77;;;5.85;;
52718;SDS011;38616;42.140;24.760;2023-05-10T02:21:31;11.75;;;5.47;;
52718;SDS011;38616;42.140;24.760;2023-05-10T02:23:58;17.02;;;6.07;;
52718;SDS011;38616;42.140;24.760;2023-05-10T02:26:26;12.85;;;5.60;;
52718;SDS011;38616;42.140;24.760;2023-05-10T02:28:52;10.52;;;5.95;;
52718;SDS011;38616;42.140;24.760;2023-05-10T02:31:20;12.00;;;5.47;;
52718;SDS011;38616;42.140;24.760;2023-05-10T02:33:46;10.50;;;5.25;;
52718;SDS011;38616;42.140;24.760;2023-05-10T02:36:14;8.37;;;3.93;;
52718;SDS011;38616;42.140;24.760;2023-05-10T02:38:41;9.82;;;5.25;;
52718;SDS011;38616;42.140;24.760;2023-05-10T02:41:08;14.02;;;5.32;;
52718;SDS011;38616;42.140;24.760;2023-05-10T02:43:35;7.53;;;4.80;;
52718;SDS011;38616;42.140;24.760;2023-05-10T02:46:03;12.55;;;5.57;;
52718;SDS011;38616;42.140;24.760;2023-05-10T02:48:28;7.53;;;4.32;;
52718;SDS011;38616;42.140;24.760;2023-05-10T02:50:54;12.60;;;6.32;;
52718;SDS011;38616;42.140;24.760;2023-05-10T02:53:30;10.18;;;4.80;;
52718;SDS011;38616;42.140;24.760;2023-05-10T02:55:57;13.55;;;4.80;;
52718;SDS011;38616;42.140;24.760;2023-05-10T02:58:25;12.82;;;5.22;;
52718;SDS011;38616;42.140;24.760;2023-05-10T03:00:51;9.13;;;5.63;;
52718;SDS011;38616;42.140;24.760;2023-05-10T03:03:17;15.52;;;6.18;;
52718;SDS011;38616;42.140;24.760;2023-05-10T03:05:42;15.68;;;6.38;;
52718;SDS011;38616;42.140;24.760;2023-05-10T03:08:08;13.05;;;4.40;;
52718;SDS011;38616;42.140;24.760;2023-05-10T03:10:34;8.93;;;4.53;;
52718;SDS011;38616;42.140;24.760;2023-05-10T03:13:26;11.35;;;6.05;;
52718;SDS011;38616;42.140;24.760;2023-05-10T03:16:24;8.75;;;4.45;;
52718;SDS011;38616;42.140;24.760;2023-05-10T03:21:32;9.32;;;5.95;;
52718;SDS011;38616;42.140;24.760;2023-05-10T03:23:59;14.65;;;5.63;;
52718;SDS011;38616;42.140;24.760;2023-05-10T03:26:32;10.90;;;5.18;;
52718;SDS011;38616;42.140;24.760;2023-05-10T03:28:58;11.43;;;6.07;;
52718;SDS011;38616;42.140;24.760;2023-05-10T03:31:25;18.52;;;7.05;;
52718;SDS011;38616;42.140;24.760;2023-05-10T03:33:51;12.95;;;7.05;;
52718;SDS011;38616;42.140;24.760;2023-05-10T03:36:17;15.90;;;6.32;;
52718;SDS011;38616;42.140;24.760;2023-05-10T03:38:44;14.18;;;7.15;;
52718;SDS011;38616;42.140;24.760;2023-05-10T03:41:09;12.68;;;5.53;;
52718;SDS011;38616;42.140;24.760;2023-05-10T03:43:34;12.45;;;5.45;;
52718;SDS011;38616;42.140;24.760;2023-05-10T03:46:03;10.95;;;5.93;;
52718;SDS011;38616;42.140;24.760;2023-05-10T03:48:30;10.60;;;4.75;;
52718;SDS011;38616;42.140;24.760;2023-05-10T03:50:57;12.52;;;6.15;;
52718;SDS011;38616;42.140;24.760;2023-05-10T03:53:22;12.10;;;6.20;;
52718;SDS011;38616;42.140;24.760;2023-05-10T03:55:48;14.48;;;7.32;;
52718;SDS011;38616;42.140;24.760;2023-05-10T03:58:14;16.08;;;7.55;;
52718;SDS011;38616;42.140;24.760;2023-05-10T04:00:39;12.27;;;6.95;;
52718;SDS011;38616;42.140;24.760;2023-05-10T04:03:10;10.90;;;5.90;;
52718;SDS011;38616;42.140;24.760;2023-05-10T04:05:36;14.40;;;6.20;;
52718;SDS011;38616;42.140;24.760;2023-05-10T04:08:02;13.27;;;5.03;;
52718;SDS011;38616;42.140;24.760;2023-05-10T04:10:28;12.95;;;4.80;;
52718;SDS011;38616;42.140;24.760;2023-05-10T04:12:53;9.73;;;5.30;;
52718;SDS011;38616;42.140;24.760;2023-05-10T04:15:18;12.18;;;5.05;;
52718;SDS011;38616;42.140;24.760;2023-05-10T04:17:44;9.20;;;4.72;;
52718;SDS011;38616;42.140;24.760;2023-05-10T04:20:12;16.50;;;5.40;;
52718;SDS011;38616;42.140;24.760;2023-05-10T04:22:38;11.00;;;4.40;;
52718;SDS011;38616;42.140;24.760;2023-05-10T04:25:04;12.13;;;5.00;;
52718;SDS011;38616;42.140;24.760;2023-05-10T04:27:30;9.52;;;5.13;;
52718;SDS011;38616;42.140;24.760;2023-05-10T04:29:56;9.95;;;5.57;;
52718;SDS011;38616;42.140;24.760;2023-05-10T04:32:21;15.00;;;6.10;;
52718;SDS011;38616;42.140;24.760;2023-05-10T04:34:47;11.80;;;5.50;;
52718;SDS011;38616;42.140;24.760;2023-05-10T04:37:15;11.48;;;5.57;;
52718;SDS011;38616;42.140;24.760;2023-05-10T04:39:41;11.05;;;4.65;;
52718;SDS011;38616;42.140;24.760;2023-05-10T04:42:06;10.20;;;4.85;;
52718;SDS011;38616;42.140;24.760;2023-05-10T04:44:32;10.50;;;4.75;;
52718;SDS011;38616;42.140;24.760;2023-05-10T04:46:57;10.68;;;5.15;;
52718;SDS011;38616;42.140;24.760;2023-05-10T04:49:23;14.18;;;5.97;;
52718;SDS011;38616;42.140;24.760;2023-05-10T04:51:49;11.82;;;5.65;;
52718;SDS011;38616;42.140;24.760;2023-05-10T04:54:14;8.75;;;5.20;;
52718;SDS011;38616;42.140;24.760;2023-05-10T04:56:40;12.85;;;5.10;;
52718;SDS011;38616;42.140;24.760;2023-05-10T04:59:05;8.68;;;4.85;;
52718;SDS011;38616;42.140;24.760;2023-05-10T05:01:31;12.95;;;5.75;;
52718;SDS011;38616;42.140;24.760;2023-05-10T05:03:56;12.65;;;5.15;;
52718;SDS011;38616;42.140;24.760;2023-05-10T05:06:22;10.60;;;5.45;;
52718;SDS011;38616;42.140;24.760;2023-05-10T05:08:49;10.85;;;4.43;;
52718;SDS011;38616;42.140;24.760;2023-05-10T05:11:15;12.43;;;4.68;;
52718;SDS011;38616;42.140;24.760;2023-05-10T05:13:40;10.55;;;4.88;;
52718;SDS011;38616;42.140;24.760;2023-05-10T05:16:08;11.95;;;4.75;;
52718;SDS011;38616;42.140;24.760;2023-05-10T05:18:34;11.13;;;5.53;;
52718;SDS011;38616;42.140;24.760;2023-05-10T05:20:59;12.18;;;5.10;;
52718;SDS011;38616;42.140;24.760;2023-05-10T05:23:25;25.27;;;12.63;;
52718;SDS011;38616;42.140;24.760;2023-05-10T05:25:51;16.17;;;6.30;;
52718;SDS011;38616;42.140;24.760;2023-05-10T05:28:17;15.68;;;4.85;;
52718;SDS011;38616;42.140;24.760;2023-05-10T05:30:43;11.18;;;5.75;;
52718;SDS011;38616;42.140;24.760;2023-05-10T05:33:08;9.13;;;4.50;;
52718;SDS011;38616;42.140;24.760;2023-05-10T05:35:34;10.27;;;4.18;;
52718;SDS011;38616;42.140;24.760;2023-05-10T05:37:59;7.72;;;4.50;;
52718;SDS011;38616;42.140;24.760;2023-05-10T05:40:25;12.32;;;4.50;;
52718;SDS011;38616;42.140;24.760;2023-05-10T05:42:50;9.35;;;4.13;;
52718;SDS011;38616;42.140;24.760;2023-05-10T05:45:16;8.90;;;4.18;;
52718;SDS011;38616;42.140;24.760;2023-05-10T05:47:41;7.55;;;3.95;;
52718;SDS011;38616;42.140;24.760;2023-05-10T05:50:07;5.90;;;4.05;;
52718;SDS011;38616;42.140;24.760;2023-05-10T05:52:32;11.75;;;4.22;;
52718;SDS011;38616;42.140;24.760;2023-05-10T05:54:58;6.53;;;3.85;;
52718;SDS011;38616;42.140;24.760;2023-05-10T05:57:24;7.95;;;4.78;;
52718;SDS011;38616;42.140;24.760;2023-05-10T05:59:49;9.30;;;4.57;;
52718;SDS011;38616;42.140;24.760;2023-05-10T06:02:14;13.20;;;5.22;;
52718;SDS011;38616;42.140;24.760;2023-05-10T06:04:40;15.38;;;6.22;;
52718;SDS011;38616;42.140;24.760;2023-05-10T06:07:05;10.98;;;5.25;;
52718;SDS011;38616;42.140;24.760;2023-05-10T06:09:31;18.17;;;8.20;;
52718;SDS011;38616;42.140;24.760;2023-05-10T06:11:56;15.88;;;7.78;;
52718;SDS011;38616;42.140;24.760;2023-05-10T06:14:22;8.43;;;4.78;;
52718;SDS011;38616;42.140;24.760;2023-05-10T06:16:48;8.13;;;5.05;;
52718;SDS011;38616;42.140;24.760;2023-05-10T06:19:13;11.35;;;5.03;;
52718;SDS011;38616;42.140;24.760;2023-05-10T06:21:39;10.32;;;4.63;;
52718;SDS011;38616;42.140;24.760;2023-05-10T06:24:07;12.30;;;5.63;;
52718;SDS011;38616;42.140;24.760;2023-05-10T06:26:33;11.05;;;4.60;;
52718;SDS011;38616;42.140;24.760;2023-05-10T06:28:58;8.98;;;3.97;;
52718;SDS011;38616;42.140;24.760;2023-05-10T06:31:24;7.28;;;4.00;;
52718;SDS011;38616;42.140;24.760;2023-05-10T06:33:49;10.38;;;4.22;;
52718;SDS011;38616;42.140;24.760;2023-05-10T06:36:15;12.73;;;4.25;;
52718;SDS011;38616;42.140;24.760;2023-05-10T06:38:40;11.07;;;4.70;;
52718;SDS011;38616;42.140;24.760;2023-05-10T06:41:05;11.52;;;4.10;;
52718;SDS011;38616;42.140;24.760;2023-05-10T06:43:31;8.35;;;3.88;;
52718;SDS011;38616;42.140;24.760;2023-05-10T06:45:56;13.23;;;5.63;;
52718;SDS011;38616;42.140;24.760;2023-05-10T06:48:22;10.82;;;3.80;;
52718;SDS011;38616;42.140;24.760;2023-05-10T06:50:47;11.43;;;4.07;;
52718;SDS011;38616;42.140;24.760;2023-05-10T06:53:13;9.35;;;4.68;;
52718;SDS011;38616;42.140;24.760;2023-05-10T06:55:38;8.95;;;4.38;;
52718;SDS011;38616;42.140;24.760;2023-05-10T06:58:04;9.80;;;4.32;;
52718;SDS011;38616;42.140;24.760;2023-05-10T07:00:30;10.02;;;4.30;;
52718;SDS011;38616;42.140;24.760;2023-05-10T07:02:55;6.35;;;3.72;;
52718;SDS011;38616;42.140;24.760;2023-05-10T07:05:23;11.57;;;4.28;;
52718;SDS011;38616;42.140;24.760;2023-05-10T07:07:49;8.80;;;4.25;;
52718;SDS011;38616;42.140;24.760;2023-05-10T07:10:14;13.25;;;4.43;;
52718;SDS011;38616;42.140;24.760;2023-05-10T07:12:40;7.80;;;3.92;;
52718;SDS011;38616;42.140;24.760;2023-05-10T07:15:25;7.25;;;3.58;;
52718;SDS011;38616;42.140;24.760;2023-05-10T07:17:50;15.45;;;4.80;;
52718;SDS011;38616;42.140;24.760;2023-05-10T07:20:18;8.60;;;3.88;;
52718;SDS011;38616;42.140;24.760;2023-05-10T07:22:44;9.00;;;3.72;;
52718;SDS011;38616;42.140;24.760;2023-05-10T07:25:09;7.07;;;3.58;;
52718;SDS011;38616;42.140;24.760;2023-05-10T07:27:35;8.75;;;3.42;;
52718;SDS011;38616;42.140;24.760;2023-05-10T07:30:01;7.68;;;3.97;;
52718;SDS011;38616;42.140;24.760;2023-05-10T07:32:26;7.35;;;4.25;;
52718;SDS011;38616;42.140;24.760;2023-05-10T07:34:52;8.35;;;3.97;;
52718;SDS011;38616;42.140;24.760;2023-05-10T07:37:17;11.88;;;3.78;;
52718;SDS011;38616;42.140;24.760;2023-05-10T07:39:43;10.50;;;3.72;;
52718;SDS011;38616;42.140;24.760;2023-05-10T07:42:08;9.30;;;5.10;;
52718;SDS011;38616;42.140;24.760;2023-05-10T07:44:34;15.57;;;4.22;;
52718;SDS011;38616;42.140;24.760;2023-05-10T07:46:59;6.80;;;3.67;;
52718;SDS011;38616;42.140;24.760;2023-05-10T07:49:25;9.45;;;4.38;;
52718;SDS011;38616;42.140;24.760;2023-05-10T07:51:51;7.25;;;3.88;;
52718;SDS011;38616;42.140;24.760;2023-05-10T07:54:16;9.38;;;3.75;;
52718;SDS011;38616;42.140;24.760;2023-05-10T07:56:42;9.65;;;3.88;;
52718;SDS011;38616;42.140;24.760;2023-05-10T07:59:14;5.97;;;3.78;;
52718;SDS011;38616;42.140;24.760;2023-05-10T08:01:41;6.72;;;3.33;;
52718;SDS011;38616;42.140;24.760;2023-05-10T08:04:07;9.98;;;3.30;;
52718;SDS011;38616;42.140;24.760;2023-05-10T08:06:34;9.32;;;3.40;;
52718;SDS011;38616;42.140;24.760;2023-05-10T08:08:59;5.07;;;3.47;;
52718;SDS011;38616;42.140;24.760;2023-05-10T08:11:25;12.32;;;4.85;;
52718;SDS011;38616;42.140;24.760;2023-05-10T08:13:52;7.97;;;3.88;;
52718;SDS011;38616;42.140;24.760;2023-05-10T08:16:18;11.30;;;4.82;;
52718;SDS011;38616;42.140;24.760;2023-05-10T08:18:44;7.97;;;5.00;;
52718;SDS011;38616;42.140;24.760;2023-05-10T08:21:11;8.25;;;3.40;;
52718;SDS011;38616;42.140;24.760;2023-05-10T08:23:37;11.20;;;3.67;;
52718;SDS011;38616;42.140;24.760;2023-05-10T08:26:02;5.15;;;3.10;;
52718;SDS011;38616;42.140;24.760;2023-05-10T08:28:28;7.53;;;2.67;;
52718;SDS011;38616;42.140;24.760;2023-05-10T08:30:53;9.10;;;3.45;;
52718;SDS011;38616;42.140;24.760;2023-05-10T08:33:19;8.93;;;3.45;;
52718;SDS011;38616;42.140;24.760;2023-05-10T08:35:44;5.38;;;3.08;;
52718;SDS011;38616;42.140;24.760;2023-05-10T08:38:10;7.40;;;3.63;;
52718;SDS011;38616;42.140;24.760;2023-05-10T08:40:40;7.78;;;3.13;;
52718;SDS011;38616;42.140;24.760;2023-05-10T08:43:07;4.80;;;3.08;;
52718;SDS011;38616;42.140;24.760;2023-05-10T08:45:38;4.35;;;2.30;;
52718;SDS011;38616;42.140;24.760;2023-05-10T08:48:08;6.85;;;2.95;;
52718;SDS011;38616;42.140;24.760;2023-05-10T08:50:35;5.05;;;2.63;;
52718;SDS011;38616;42.140;24.760;2023-05-10T08:53:12;16.08;;;3.17;;
52718;SDS011;38616;42.140;24.760;2023-05-10T08:55:39;7.47;;;3.30;;
52718;SDS011;38616;42.140;24.760;2023-05-10T08:58:07;5.50;;;3.20;;
52718;SDS011;38616;42.140;24.760;2023-05-10T09:00:33;5.82;;;3.40;;
52718;SDS011;38616;42.140;24.760;2023-05-10T09:03:00;4.90;;;2.80;;
52718;SDS011;38616;42.140;24.760;2023-05-10T09:05:26;10.23;;;3.53;;
52718;SDS011;38616;42.140;24.760;2023-05-10T09:07:52;6.63;;;3.22;;
52718;SDS011;38616;42.140;24.760;2023-05-10T09:10:18;10.10;;;3.65;;
52718;SDS011;38616;42.140;24.760;2023-05-10T09:12:44;9.90;;;4.03;;
52718;SDS011;38616;42.140;24.760;2023-05-10T09:15:10;11.98;;;3.78;;
52718;SDS011;38616;42.140;24.760;2023-05-10T09:17:37;5.85;;;3.38;;
52718;SDS011;38616;42.140;24.760;2023-05-10T09:20:05;8.55;;;3.25;;
52718;SDS011;38616;42.140;24.760;2023-05-10T09:22:31;10.45;;;3.25;;
52718;SDS011;38616;42.140;24.760;2023-05-10T09:25:10;7.72;;;2.92;;
52718;SDS011;38616;42.140;24.760;2023-05-10T09:27:37;8.20;;;3.45;;
52718;SDS011;38616;42.140;24.760;2023-05-10T09:30:04;7.30;;;3.20;;
52718;SDS011;38616;42.140;24.760;2023-05-10T09:32:40;9.35;;;3.00;;
52718;SDS011;38616;42.140;24.760;2023-05-10T09:35:09;4.00;;;3.10;;
52718;SDS011;38616;42.140;24.760;2023-05-10T09:37:34;6.40;;;4.03;;
52718;SDS011;38616;42.140;24.760;2023-05-10T09:40:00;11.50;;;6.00;;
52718;SDS011;38616;42.140;24.760;2023-05-10T09:42:25;8.70;;;3.95;;
52718;SDS011;38616;42.140;24.760;2023-05-10T09:44:51;4.95;;;2.90;;
52718;SDS011;38616;42.140;24.760;2023-05-10T09:47:17;6.45;;;3.33;;
52718;SDS011;38616;42.140;24.760;2023-05-10T09:49:43;3.47;;;3.08;;
52718;SDS011;38616;42.140;24.760;2023-05-10T09:52:09;8.38;;;4.05;;
52718;SDS011;38616;42.140;24.760;2023-05-10T09:54:35;7.30;;;3.85;;
52718;SDS011;38616;42.140;24.760;2023-05-10T09:57:01;9.70;;;4.07;;
52718;SDS011;38616;42.140;24.760;2023-05-10T09:59:27;5.30;;;2.72;;
52718;SDS011;38616;42.140;24.760;2023-05-10T10:01:56;5.10;;;3.20;;
52718;SDS011;38616;42.140;24.760;2023-05-10T10:04:23;5.00;;;2.92;;
52718;SDS011;38616;42.140;24.760;2023-05-10T10:06:58;7.22;;;2.85;;
52718;SDS011;38616;42.140;24.760;2023-05-10T10:09:28;6.22;;;3.15;;
52718;SDS011;38616;42.140;24.760;2023-05-10T10:11:54;9.07;;;3.30;;
52718;SDS011;38616;42.140;24.760;2023-05-10T10:14:21;5.78;;;2.92;;
52718;SDS011;38616;42.140;24.760;2023-05-10T10:16:48;5.45;;;2.90;;
52718;SDS011;38616;42.140;24.760;2023-05-10T10:19:14;5.72;;;3.53;;
52718;SDS011;38616;42.140;24.760;2023-05-10T10:21:40;6.40;;;3.08;;
52718;SDS011;38616;42.140;24.760;2023-05-10T10:24:05;8.63;;;3.20;;
52718;SDS011;38616;42.140;24.760;2023-05-10T10:26:33;8.65;;;2.78;;
52718;SDS011;38616;42.140;24.760;2023-05-10T10:31:34;5.93;;;3.15;;
52718;SDS011;38616;42.140;24.760;2023-05-10T10:34:09;7.00;;;2.63;;
52718;SDS011;38616;42.140;24.760;2023-05-10T10:36:45;4.40;;;3.17;;
52718;SDS011;38616;42.140;24.760;2023-05-10T10:39:12;8.55;;;3.10;;
52718;SDS011;38616;42.140;24.760;2023-05-10T10:41:39;5.13;;;3.60;;
52718;SDS011;38616;42.140;24.760;2023-05-10T10:49:34;8.80;;;4.07;;
52718;SDS011;38616;42.140;24.760;2023-05-10T11:05:23;5.32;;;2.92;;
52718;SDS011;38616;42.140;24.760;2023-05-10T11:08:00;8.93;;;3.85;;
52718;SDS011;38616;42.140;24.760;2023-05-10T11:10:33;5.78;;;3.75;;
52718;SDS011;38616;42.140;24.760;2023-05-10T11:13:04;5.18;;;3.85;;
52718;SDS011;38616;42.140;24.760;2023-05-10T11:18:16;5.50;;;3.80;;
52718;SDS011;38616;42.140;24.760;2023-05-10T11:20:41;9.65;;;4.40;;
52718;SDS011;38616;42.140;24.760;2023-05-10T11:23:11;6.40;;;3.70;;
52718;SDS011;38616;42.140;24.760;2023-05-10T11:25:41;9.13;;;3.80;;
52718;SDS011;38616;42.140;24.760;2023-05-10T11:28:09;6.88;;;3.38;;
52718;SDS011;38616;42.140;24.760;2023-05-10T11:30:35;7.25;;;4.07;;
52718;SDS011;38616;42.140;24.760;2023-05-10T11:33:01;3.63;;;2.95;;
52718;SDS011;38616;42.140;24.760;2023-05-10T11:35:27;5.07;;;3.20;;
52718;SDS011;38616;42.140;24.760;2023-05-10T11:37:53;5.93;;;2.88;;
52718;SDS011;38616;42.140;24.760;2023-05-10T11:40:18;6.05;;;2.80;;
52718;SDS011;38616;42.140;24.760;2023-05-10T11:42:46;5.90;;;3.03;;
52718;SDS011;38616;42.140;24.760;2023-05-10T11:45:11;5.05;;;3.30;;
52718;SDS011;38616;42.140;24.760;2023-05-10T11:47:37;9.75;;;3.20;;
52718;SDS011;38616;42.140;24.760;2023-05-10T11:50:04;5.35;;;3.17;;
52718;SDS011;38616;42.140;24.760;2023-05-10T11:52:35;9.55;;;3.67;;
52718;SDS011;38616;42.140;24.760;2023-05-10T11:55:01;5.18;;;3.45;;
52718;SDS011;38616;42.140;24.760;2023-05-10T11:57:27;7.50;;;4.25;;
52718;SDS011;38616;42.140;24.760;2023-05-10T11:59:56;5.15;;;3.80;;
52718;SDS011;38616;42.140;24.760;2023-05-10T12:02:22;10.57;;;3.67;;
52718;SDS011;38616;42.140;24.760;2023-05-10T12:04:48;7.10;;;3.83;;
52718;SDS011;38616;42.140;24.760;2023-05-10T12:07:15;10.45;;;4.20;;
52718;SDS011;38616;42.140;24.760;2023-05-10T12:09:44;9.30;;;4.10;;
52718;SDS011;38616;42.140;24.760;2023-05-10T12:12:18;4.53;;;3.67;;
52718;SDS011;38616;42.140;24.760;2023-05-10T12:14:43;7.38;;;3.90;;
52718;SDS011;38616;42.140;24.760;2023-05-10T12:17:12;4.53;;;3.90;;
52718;SDS011;38616;42.140;24.760;2023-05-10T12:19:38;4.07;;;3.50;;
52718;SDS011;38616;42.140;24.760;2023-05-10T12:22:04;5.82;;;4.03;;
52718;SDS011;38616;42.140;24.760;2023-05-10T12:24:33;6.82;;;3.92;;
52718;SDS011;38616;42.140;24.760;2023-05-10T12:26:59;5.72;;;3.78;;
52718;SDS011;38616;42.140;24.760;2023-05-10T12:29:25;8.48;;;4.45;;
52718;SDS011;38616;42.140;24.760;2023-05-10T12:31:54;9.60;;;5.55;;
52718;SDS011;38616;42.140;24.760;2023-05-10T12:34:25;11.68;;;4.85;;
52718;SDS011;38616;42.140;24.760;2023-05-10T12:36:54;8.05;;;4.07;;
52718;SDS011;38616;42.140;24.760;2023-05-10T12:39:20;6.60;;;3.95;;
52718;SDS011;38616;42.140;24.760;2023-05-10T12:41:45;6.45;;;4.65;;
52718;SDS011;38616;42.140;24.760;2023-05-10T12:44:11;7.65;;;4.88;;
52718;SDS011;38616;42.140;24.760;2023-05-10T12:46:36;8.50;;;5.05;;
52718;SDS011;38616;42.140;24.760;2023-05-10T12:49:02;8.00;;;4.60;;
52718;SDS011;38616;42.140;24.760;2023-05-10T12:51:27;9.65;;;4.93;;
52718;SDS011;38616;42.140;24.760;2023-05-10T12:53:53;8.25;;;5.05;;
52718;SDS011;38616;42.140;24.760;2023-05-10T12:56:19;7.60;;;5.15;;
52718;SDS011;38616;42.140;24.760;2023-05-10T12:58:45;10.15;;;5.60;;
52718;SDS011;38616;42.140;24.760;2023-05-10T13:01:14;9.27;;;5.53;;
52718;SDS011;38616;42.140;24.760;2023-05-10T13:03:39;8.02;;;4.43;;
52718;SDS011;38616;42.140;24.760;2023-05-10T13:06:10;7.20;;;4.60;;
52718;SDS011;38616;42.140;24.760;2023-05-10T13:08:36;6.18;;;4.72;;
52718;SDS011;38616;42.140;24.760;2023-05-10T13:11:01;7.18;;;4.82;;
52718;SDS011;38616;42.140;24.760;2023-05-10T13:13:27;12.27;;;7.18;;
52718;SDS011;38616;42.140;24.760;2023-05-10T13:15:53;8.45;;;4.38;;
52718;SDS011;38616;42.140;24.760;2023-05-10T13:18:18;8.20;;;5.15;;
52718;SDS011;38616;42.140;24.760;2023-05-10T13:20:44;6.07;;;3.80;;
52718;SDS011;38616;42.140;24.760;2023-05-10T13:23:09;10.57;;;5.50;;
52718;SDS011;38616;42.140;24.760;2023-05-10T13:25:35;6.13;;;4.10;;
52718;SDS011;38616;42.140;24.760;2023-05-10T13:28:00;6.22;;;3.80;;
52718;SDS011;38616;42.140;24.760;2023-05-10T13:30:26;8.75;;;4.10;;
52718;SDS011;38616;42.140;24.760;2023-05-10T13:32:51;8.93;;;5.65;;
52718;SDS011;38616;42.140;24.760;2023-05-10T13:35:17;5.55;;;4.30;;
52718;SDS011;38616;42.140;24.760;2023-05-10T13:37:42;7.65;;;4.90;;
52718;SDS011;38616;42.140;24.760;2023-05-10T13:40:08;7.57;;;4.35;;
52718;SDS011;38616;42.140;24.760;2023-05-10T13:42:33;9.05;;;5.90;;
52718;SDS011;38616;42.140;24.760;2023-05-10T13:44:59;8.60;;;5.85;;
52718;SDS011;38616;42.140;24.760;2023-05-10T13:47:26;7.18;;;5.43;;
52718;SDS011;38616;42.140;24.760;2023-05-10T13:49:52;8.15;;;5.50;;
52718;SDS011;38616;42.140;24.760;2023-05-10T13:52:21;10.85;;;6.03;;
52718;SDS011;38616;42.140;24.760;2023-05-10T13:54:46;10.82;;;5.85;;
52718;SDS011;38616;42.140;24.760;2023-05-10T13:57:12;9.27;;;6.38;;
52718;SDS011;38616;42.140;24.760;2023-05-10T13:59:38;11.52;;;6.63;;
52718;SDS011;38616;42.140;24.760;2023-05-10T14:02:04;15.13;;;6.70;;
52718;SDS011;38616;42.140;24.760;2023-05-10T14:04:30;13.68;;;7.40;;
52718;SDS011;38616;42.140;24.760;2023-05-10T14:06:56;9.73;;;6.38;;
52718;SDS011;38616;42.140;24.760;2023-05-10T14:09:22;13.18;;;6.75;;
52718;SDS011;38616;42.140;24.760;2023-05-10T14:11:47;9.23;;;6.03;;
52718;SDS011;38616;42.140;24.760;2023-05-10T14:14:13;9.35;;;5.32;;
52718;SDS011;38616;42.140;24.760;2023-05-10T14:16:41;7.97;;;4.68;;
52718;SDS011;38616;42.140;24.760;2023-05-10T14:19:07;7.05;;;4.78;;
52718;SDS011;38616;42.140;24.760;2023-05-10T14:21:33;10.93;;;6.15;;
52718;SDS011;38616;42.140;24.760;2023-05-10T14:24:17;6.82;;;5.00;;
52718;SDS011;38616;42.140;24.760;2023-05-10T14:26:42;9.60;;;4.78;;
52718;SDS011;38616;42.140;24.760;2023-05-10T14:29:07;8.32;;;4.68;;
52718;SDS011;38616;42.140;24.760;2023-05-10T14:31:33;6.88;;;4.68;;
52718;SDS011;38616;42.140;24.760;2023-05-10T14:33:58;8.82;;;5.63;;
52718;SDS011;38616;42.140;24.760;2023-05-10T14:36:24;8.10;;;5.10;;
52718;SDS011;38616;42.140;24.760;2023-05-10T14:38:49;13.82;;;7.70;;
52718;SDS011;38616;42.140;24.760;2023-05-10T14:41:15;12.18;;;7.40;;
52718;SDS011;38616;42.140;24.760;2023-05-10T14:43:42;8.43;;;4.93;;
52718;SDS011;38616;42.140;24.760;2023-05-10T14:46:08;6.82;;;4.20;;
52718;SDS011;38616;42.140;24.760;2023-05-10T14:48:33;6.70;;;4.03;;
52718;SDS011;38616;42.140;24.760;2023-05-10T14:50:59;5.45;;;3.67;;
52718;SDS011;38616;42.140;24.760;2023-05-10T14:53:33;6.63;;;4.13;;
52718;SDS011;38616;42.140;24.760;2023-05-10T14:55:59;6.45;;;3.85;;
52718;SDS011;38616;42.140;24.760;2023-05-10T14:58:26;6.82;;;3.95;;
52718;SDS011;38616;42.140;24.760;2023-05-10T15:00:52;7.07;;;4.63;;
52718;SDS011;38616;42.140;24.760;2023-05-10T15:03:17;5.60;;;3.92;;
52718;SDS011;38616;42.140;24.760;2023-05-10T15:05:43;6.85;;;3.90;;
52718;SDS011;38616;42.140;24.760;2023-05-10T15:08:08;5.80;;;4.05;;
52718;SDS011;38616;42.140;24.760;2023-05-10T15:10:34;8.57;;;4.22;;